sensor_id;sensor_type;location;lat;lon;timestamp;pressure;altitude;pressure_sealevel;temperature;humidity
52137;BME280;69622;49.570;10.986;2023-06-14T00:00:19;98008.69;;;18.69;52.24
52137;BME280;69622;49.570;10.986;2023-06-14T00:03:21;97998.84;;;18.63;52.58
52137;BME280;69622;49.570;10.986;2023-06-14T00:06:23;98003.50;;;18.52;53.11
52137;BME280;69622;49.570;10.986;2023-06-14T00:09:25;97995.13;;;18.49;52.59
52137;BME280;69622;49.570;10.986;2023-06-14T00:12:27;97998.06;;;18.46;51.79
52137;BME280;69622;49.570;10.986;2023-06-14T00:15:28;98002.53;;;18.45;51.70
52137;BME280;69622;49.570;10.986;2023-06-14T00:18:30;97996.75;;;18.50;52.18
52137;BME280;69622;49.570;10.986;2023-06-14T00:21:32;97994.34;;;18.40;52.40
52137;BME280;69622;49.570;10.986;2023-06-14T00:24:33;97987.63;;;18.38;52.01
52137;BME280;69622;49.570;10.986;2023-06-14T00:27:35;97989.03;;;18.48;52.79
52137;BME280;69622;49.570;10.986;2023-06-14T00:30:36;97991.06;;;18.38;52.45
52137;BME280;69622;49.570;10.986;2023-06-14T00:33:38;97987.63;;;18.38;52.18
52137;BME280;69622;49.570;10.986;2023-06-14T00:36:39;97980.56;;;18.30;52.62
52137;BME280;69622;49.570;10.986;2023-06-14T00:39:41;97984.06;;;18.22;52.65
52137;BME280;69622;49.570;10.986;2023-06-14T00:42:42;97982.34;;;18.07;53.15
52137;BME280;69622;49.570;10.986;2023-06-14T00:45:43;97984.22;;;17.90;55.08
52137;BME280;69622;49.570;10.986;2023-06-14T00:48:45;97976.06;;;17.69;56.08
52137;BME280;69622;49.570;10.986;2023-06-14T00:51:49;97973.28;;;17.70;56.35
52137;BME280;69622;49.570;10.986;2023-06-14T00:54:50;97974.09;;;17.54;57.83
52137;BME280;69622;49.570;10.986;2023-06-14T00:57:53;97982.00;;;17.46;57.48
52137;BME280;69622;49.570;10.986;2023-06-14T01:00:54;97986.91;;;17.57;56.18
52137;BME280;69622;49.570;10.986;2023-06-14T01:03:56;97981.66;;;17.49;55.89
52137;BME280;69622;49.570;10.986;2023-06-14T01:07:12;97982.34;;;17.43;56.07
52137;BME280;69622;49.570;10.986;2023-06-14T01:10:40;97988.59;;;17.42;56.46
52137;BME280;69622;49.570;10.986;2023-06-14T01:13:46;97982.03;;;17.30;56.46
52137;BME280;69622;49.570;10.986;2023-06-14T01:16:48;97993.53;;;17.29;56.61
52137;BME280;69622;49.570;10.986;2023-06-14T01:19:54;97987.47;;;17.20;57.11
52137;BME280;69622;49.570;10.986;2023-06-14T01:22:59;97996.81;;;17.15;56.98
52137;BME280;69622;49.570;10.986;2023-06-14T01:26:01;97995.34;;;17.12;56.80
52137;BME280;69622;49.570;10.986;2023-06-14T01:29:05;97995.34;;;17.20;56.21
52137;BME280;69622;49.570;10.986;2023-06-14T01:32:07;98000.28;;;17.07;56.17
52137;BME280;69622;49.570;10.986;2023-06-14T01:35:09;98003.38;;;17.02;55.40
52137;BME280;69622;49.570;10.986;2023-06-14T01:38:12;98012.59;;;17.06;56.20
52137;BME280;69622;49.570;10.986;2023-06-14T01:41:15;98002.53;;;16.86;56.36
52137;BME280;69622;49.570;10.986;2023-06-14T01:44:18;98001.38;;;16.72;57.81
52137;BME280;69622;49.570;10.986;2023-06-14T01:47:21;98004.13;;;16.62;57.80
52137;BME280;69622;49.570;10.986;2023-06-14T01:50:22;98002.06;;;16.74;57.00
52137;BME280;69622;49.570;10.986;2023-06-14T01:53:24;97996.09;;;16.64;57.23
52137;BME280;69622;49.570;10.986;2023-06-14T01:56:25;97997.78;;;16.81;56.31
52137;BME280;69622;49.570;10.986;2023-06-14T01:59:27;97999.13;;;16.93;56.54
52137;BME280;69622;49.570;10.986;2023-06-14T02:02:29;98001.38;;;16.88;55.96
52137;BME280;69622;49.570;10.986;2023-06-14T02:05:30;98006.16;;;16.76;56.06
52137;BME280;69622;49.570;10.986;2023-06-14T02:08:32;98006.78;;;16.70;55.92
52137;BME280;69622;49.570;10.986;2023-06-14T02:11:33;98001.31;;;16.56;57.98
52137;BME280;69622;49.570;10.986;2023-06-14T02:14:35;98005.25;;;16.43;59.36
52137;BME280;69622;49.570;10.986;2023-06-14T02:17:36;98013.09;;;16.35;59.93
52137;BME280;69622;49.570;10.986;2023-06-14T02:20:38;98007.88;;;16.43;60.05
52137;BME280;69622;49.570;10.986;2023-06-14T02:23:40;98016.03;;;16.32;60.40
52137;BME280;69622;49.570;10.986;2023-06-14T02:26:41;98014.50;;;16.22;60.46
52137;BME280;69622;49.570;10.986;2023-06-14T02:29:43;98011.44;;;16.34;59.63
52137;BME280;69622;49.570;10.986;2023-06-14T02:32:44;98018.50;;;16.34;59.91
52137;BME280;69622;49.570;10.986;2023-06-14T02:35:46;98018.66;;;16.40;60.13
52137;BME280;69622;49.570;10.986;2023-06-14T02:38:48;98017.66;;;16.33;59.84
52137;BME280;69622;49.570;10.986;2023-06-14T02:41:50;98022.25;;;16.31;59.67
52137;BME280;69622;49.570;10.986;2023-06-14T02:44:51;98019.97;;;16.28;59.58
52137;BME280;69622;49.570;10.986;2023-06-14T02:47:53;98020.19;;;16.09;59.39
52137;BME280;69622;49.570;10.986;2023-06-14T02:50:54;98024.66;;;15.82;60.85
52137;BME280;69622;49.570;10.986;2023-06-14T02:53:57;98027.63;;;15.87;60.19
52137;BME280;69622;49.570;10.986;2023-06-14T02:56:58;98026.66;;;15.88;59.54
52137;BME280;69622;49.570;10.986;2023-06-14T03:00:00;98018.78;;;15.88;59.46
52137;BME280;69622;49.570;10.986;2023-06-14T03:03:01;98030.84;;;16.07;58.89
52137;BME280;69622;49.570;10.986;2023-06-14T03:06:03;98024.59;;;16.00;59.19
52137;BME280;69622;49.570;10.986;2023-06-14T03:09:06;98028.69;;;16.03;58.87
52137;BME280;69622;49.570;10.986;2023-06-14T03:12:08;98037.00;;;15.90;59.34
52137;BME280;69622;49.570;10.986;2023-06-14T03:15:11;98032.25;;;15.94;59.13
52137;BME280;69622;49.570;10.986;2023-06-14T03:18:14;98030.59;;;15.93;59.60
52137;BME280;69622;49.570;10.986;2023-06-14T03:21:16;98033.91;;;15.95;59.70
52137;BME280;69622;49.570;10.986;2023-06-14T03:24:18;98037.97;;;15.89;59.64
52137;BME280;69622;49.570;10.986;2023-06-14T03:27:20;98036.63;;;15.85;59.90
52137;BME280;69622;49.570;10.986;2023-06-14T03:30:22;98035.72;;;15.94;59.25
52137;BME280;69622;49.570;10.986;2023-06-14T03:33:24;98043.38;;;15.87;59.50
52137;BME280;69622;49.570;10.986;2023-06-14T03:36:26;98040.84;;;15.78;59.79
52137;BME280;69622;49.570;10.986;2023-06-14T03:39:29;98045.53;;;15.66;60.15
52137;BME280;69622;49.570;10.986;2023-06-14T03:42:30;98053.88;;;15.44;60.71
52137;BME280;69622;49.570;10.986;2023-06-14T03:45:31;98062.38;;;15.46;60.97
52137;BME280;69622;49.570;10.986;2023-06-14T03:48:33;98053.34;;;15.40;60.52
52137;BME280;69622;49.570;10.986;2023-06-14T03:51:34;98063.25;;;15.28;61.60
52137;BME280;69622;49.570;10.986;2023-06-14T03:54:36;98063.69;;;15.24;61.89
52137;BME280;69622;49.570;10.986;2023-06-14T03:57:41;98062.00;;;15.33;61.42
52137;BME280;69622;49.570;10.986;2023-06-14T04:00:42;98070.88;;;15.40;61.69
52137;BME280;69622;49.570;10.986;2023-06-14T04:03:44;98074.69;;;15.63;61.21
52137;BME280;69622;49.570;10.986;2023-06-14T04:06:46;98069.84;;;15.76;61.04
52137;BME280;69622;49.570;10.986;2023-06-14T04:09:49;98077.00;;;15.66;60.50
52137;BME280;69622;49.570;10.986;2023-06-14T04:12:51;98081.44;;;15.48;62.02
52137;BME280;69622;49.570;10.986;2023-06-14T04:15:53;98089.16;;;15.32;62.34
52137;BME280;69622;49.570;10.986;2023-06-14T04:18:55;98084.19;;;15.28;62.63
52137;BME280;69622;49.570;10.986;2023-06-14T04:21:58;98086.06;;;15.36;62.03
52137;BME280;69622;49.570;10.986;2023-06-14T04:25:00;98088.34;;;15.31;62.86
52137;BME280;69622;49.570;10.986;2023-06-14T04:28:06;98101.81;;;15.18;63.40
52137;BME280;69622;49.570;10.986;2023-06-14T04:31:10;98095.97;;;15.24;63.02
52137;BME280;69622;49.570;10.986;2023-06-14T04:34:13;98098.44;;;15.08;64.26
52137;BME280;69622;49.570;10.986;2023-06-14T04:37:18;98094.63;;;15.20;64.30
52137;BME280;69622;49.570;10.986;2023-06-14T04:40:20;98098.13;;;15.29;64.19
52137;BME280;69622;49.570;10.986;2023-06-14T04:43:21;98096.09;;;15.23;64.63
52137;BME280;69622;49.570;10.986;2023-06-14T04:46:28;98099.56;;;15.06;65.31
52137;BME280;69622;49.570;10.986;2023-06-14T04:49:31;98099.19;;;15.18;64.88
52137;BME280;69622;49.570;10.986;2023-06-14T04:52:34;98098.88;;;15.21;65.16
52137;BME280;69622;49.570;10.986;2023-06-14T04:55:36;98102.31;;;15.22;66.11
52137;BME280;69622;49.570;10.986;2023-06-14T04:58:38;98103.16;;;15.22;64.99
52137;BME280;69622;49.570;10.986;2023-06-14T05:01:40;98101.72;;;15.28;65.96
52137;BME280;69622;49.570;10.986;2023-06-14T05:04:42;98102.47;;;15.20;66.58
52137;BME280;69622;49.570;10.986;2023-06-14T05:07:43;98099.31;;;15.35;66.03
52137;BME280;69622;49.570;10.986;2023-06-14T05:10:45;98100.19;;;15.43;66.73
52137;BME280;69622;49.570;10.986;2023-06-14T05:13:46;98102.06;;;15.51;65.56
52137;BME280;69622;49.570;10.986;2023-06-14T05:16:48;98108.28;;;15.68;65.50
52137;BME280;69622;49.570;10.986;2023-06-14T05:19:50;98102.91;;;15.69;65.67
52137;BME280;69622;49.570;10.986;2023-06-14T05:22:52;98110.69;;;15.61;65.79
52137;BME280;69622;49.570;10.986;2023-06-14T05:25:54;98101.09;;;15.52;66.03
52137;BME280;69622;49.570;10.986;2023-06-14T05:28:56;98109.75;;;15.62;66.25
52137;BME280;69622;49.570;10.986;2023-06-14T05:31:58;98106.41;;;15.60;68.04
52137;BME280;69622;49.570;10.986;2023-06-14T05:35:06;98115.19;;;15.69;67.44
52137;BME280;69622;49.570;10.986;2023-06-14T05:38:07;98116.19;;;15.76;68.43
52137;BME280;69622;49.570;10.986;2023-06-14T05:41:09;98128.03;;;15.80;67.87
52137;BME280;69622;49.570;10.986;2023-06-14T05:44:10;98127.16;;;15.71;67.54
52137;BME280;69622;49.570;10.986;2023-06-14T05:47:12;98132.19;;;15.91;67.22
52137;BME280;69622;49.570;10.986;2023-06-14T05:50:14;98131.16;;;16.09;67.71
52137;BME280;69622;49.570;10.986;2023-06-14T05:53:15;98128.50;;;16.01;68.02
52137;BME280;69622;49.570;10.986;2023-06-14T05:56:17;98134.81;;;15.91;68.44
52137;BME280;69622;49.570;10.986;2023-06-14T05:59:19;98136.38;;;16.01;69.42
52137;BME280;69622;49.570;10.986;2023-06-14T06:02:20;98129.78;;;15.71;69.92
52137;BME280;69622;49.570;10.986;2023-06-14T06:05:22;98133.03;;;16.17;68.61
52137;BME280;69622;49.570;10.986;2023-06-14T06:08:23;98134.41;;;16.29;67.22
52137;BME280;69622;49.570;10.986;2023-06-14T06:11:25;98140.25;;;16.23;67.22
52137;BME280;69622;49.570;10.986;2023-06-14T06:14:30;98137.59;;;16.15;67.35
52137;BME280;69622;49.570;10.986;2023-06-14T06:17:32;98139.97;;;16.26;68.03
52137;BME280;69622;49.570;10.986;2023-06-14T06:20:53;98141.84;;;16.42;67.96
52137;BME280;69622;49.570;10.986;2023-06-14T06:24:01;98142.47;;;16.36;67.09
52137;BME280;69622;49.570;10.986;2023-06-14T06:27:13;98150.66;;;16.33;66.51
52137;BME280;69622;49.570;10.986;2023-06-14T06:30:15;98140.78;;;16.27;67.30
52137;BME280;69622;49.570;10.986;2023-06-14T06:33:17;98143.94;;;16.04;69.18
52137;BME280;69622;49.570;10.986;2023-06-14T06:36:18;98149.59;;;16.52;66.69
52137;BME280;69622;49.570;10.986;2023-06-14T06:39:20;98140.19;;;16.41;67.29
52137;BME280;69622;49.570;10.986;2023-06-14T06:42:21;98146.91;;;16.69;65.28
52137;BME280;69622;49.570;10.986;2023-06-14T06:45:24;98145.81;;;16.88;65.90
52137;BME280;69622;49.570;10.986;2023-06-14T06:48:26;98151.16;;;17.04;67.10
52137;BME280;69622;49.570;10.986;2023-06-14T06:51:27;98154.72;;;17.03;64.17
52137;BME280;69622;49.570;10.986;2023-06-14T06:54:29;98153.41;;;16.99;63.95
52137;BME280;69622;49.570;10.986;2023-06-14T06:57:30;98158.97;;;16.96;63.02
52137;BME280;69622;49.570;10.986;2023-06-14T07:00:32;98157.19;;;16.97;63.47
52137;BME280;69622;49.570;10.986;2023-06-14T07:03:33;98158.03;;;17.14;60.67
52137;BME280;69622;49.570;10.986;2023-06-14T07:06:35;98158.03;;;17.05;62.54
52137;BME280;69622;49.570;10.986;2023-06-14T07:09:37;98173.53;;;16.83;61.25
52137;BME280;69622;49.570;10.986;2023-06-14T07:12:38;98171.28;;;16.96;61.80
52137;BME280;69622;49.570;10.986;2023-06-14T07:15:41;98159.66;;;16.98;61.90
52137;BME280;69622;49.570;10.986;2023-06-14T07:18:42;98165.44;;;17.10;61.82
52137;BME280;69622;49.570;10.986;2023-06-14T07:21:43;98171.22;;;17.30;61.07
52137;BME280;69622;49.570;10.986;2023-06-14T07:24:45;98170.09;;;17.41;61.00
52137;BME280;69622;49.570;10.986;2023-06-14T07:27:46;98178.66;;;17.59;59.60
52137;BME280;69622;49.570;10.986;2023-06-14T07:30:48;98172.72;;;17.65;59.58
52137;BME280;69622;49.570;10.986;2023-06-14T07:33:49;98185.59;;;17.68;58.86
52137;BME280;69622;49.570;10.986;2023-06-14T07:36:51;98179.78;;;17.64;59.83
52137;BME280;69622;49.570;10.986;2023-06-14T07:39:53;98191.31;;;17.55;59.65
52137;BME280;69622;49.570;10.986;2023-06-14T07:42:54;98185.09;;;17.73;59.99
52137;BME280;69622;49.570;10.986;2023-06-14T07:45:56;98184.91;;;17.99;60.14
52137;BME280;69622;49.570;10.986;2023-06-14T07:49:08;98184.09;;;17.98;58.20
52137;BME280;69622;49.570;10.986;2023-06-14T07:52:09;98187.19;;;18.10;57.33
52137;BME280;69622;49.570;10.986;2023-06-14T07:55:12;98194.59;;;18.22;56.24
52137;BME280;69622;49.570;10.986;2023-06-14T07:58:15;98183.69;;;18.42;56.23
52137;BME280;69622;49.570;10.986;2023-06-14T08:01:16;98189.25;;;18.55;56.47
52137;BME280;69622;49.570;10.986;2023-06-14T08:04:18;98192.38;;;18.67;54.87
52137;BME280;69622;49.570;10.986;2023-06-14T08:07:19;98186.94;;;18.68;54.30
52137;BME280;69622;49.570;10.986;2023-06-14T08:10:22;98189.84;;;18.81;53.71
52137;BME280;69622;49.570;10.986;2023-06-14T08:13:23;98190.16;;;18.87;54.27
52137;BME280;69622;49.570;10.986;2023-06-14T08:16:25;98187.72;;;18.77;52.94
52137;BME280;69622;49.570;10.986;2023-06-14T08:19:26;98188.78;;;18.99;53.40
52137;BME280;69622;49.570;10.986;2023-06-14T08:22:28;98198.44;;;19.06;52.02
52137;BME280;69622;49.570;10.986;2023-06-14T08:25:35;98201.63;;;19.02;51.46
52137;BME280;69622;49.570;10.986;2023-06-14T08:28:37;98191.91;;;19.02;52.33
52137;BME280;69622;49.570;10.986;2023-06-14T08:31:38;98194.44;;;19.19;52.76
52137;BME280;69622;49.570;10.986;2023-06-14T08:34:40;98196.63;;;19.15;52.40
52137;BME280;69622;49.570;10.986;2023-06-14T08:37:47;98188.63;;;19.31;53.13
52137;BME280;69622;49.570;10.986;2023-06-14T08:40:50;98190.69;;;19.44;51.35
52137;BME280;69622;49.570;10.986;2023-06-14T08:43:53;98202.47;;;19.56;51.03
52137;BME280;69622;49.570;10.986;2023-06-14T08:46:59;98194.25;;;19.51;50.37
52137;BME280;69622;49.570;10.986;2023-06-14T08:50:01;98203.84;;;19.75;49.66
52137;BME280;69622;49.570;10.986;2023-06-14T08:53:11;98192.34;;;19.91;49.74
52137;BME280;69622;49.570;10.986;2023-06-14T08:56:14;98200.53;;;19.96;49.45
52137;BME280;69622;49.570;10.986;2023-06-14T08:59:16;98196.13;;;20.11;47.93
52137;BME280;69622;49.570;10.986;2023-06-14T09:02:19;98192.94;;;20.30;48.60
52137;BME280;69622;49.570;10.986;2023-06-14T09:05:27;98197.56;;;20.51;48.46
52137;BME280;69622;49.570;10.986;2023-06-14T09:08:29;98198.72;;;20.49;45.98
52137;BME280;69622;49.570;10.986;2023-06-14T09:11:31;98201.31;;;20.19;45.65
52137;BME280;69622;49.570;10.986;2023-06-14T09:14:33;98197.94;;;20.11;47.39
52137;BME280;69622;49.570;10.986;2023-06-14T09:17:36;98204.03;;;19.73;47.03
52137;BME280;69622;49.570;10.986;2023-06-14T09:20:38;98204.06;;;19.88;47.39
52137;BME280;69622;49.570;10.986;2023-06-14T09:23:41;98200.22;;;20.14;47.28
52137;BME280;69622;49.570;10.986;2023-06-14T09:26:42;98203.41;;;20.24;46.61
52137;BME280;69622;49.570;10.986;2023-06-14T09:29:44;98205.03;;;20.10;47.11
52137;BME280;69622;49.570;10.986;2023-06-14T09:32:45;98207.34;;;19.90;47.04
52137;BME280;69622;49.570;10.986;2023-06-14T09:35:51;98210.09;;;19.97;47.04
52137;BME280;69622;49.570;10.986;2023-06-14T09:38:56;98210.50;;;20.09;46.47
52137;BME280;69622;49.570;10.986;2023-06-14T09:41:58;98215.69;;;20.17;47.92
52137;BME280;69622;49.570;10.986;2023-06-14T09:44:59;98196.22;;;20.32;46.02
52137;BME280;69622;49.570;10.986;2023-06-14T09:48:02;98199.16;;;20.23;46.15
52137;BME280;69622;49.570;10.986;2023-06-14T09:51:13;98209.22;;;20.19;45.98
52137;BME280;69622;49.570;10.986;2023-06-14T09:54:21;98204.22;;;20.10;46.40
52137;BME280;69622;49.570;10.986;2023-06-14T09:57:23;98207.94;;;20.53;45.88
52137;BME280;69622;49.570;10.986;2023-06-14T10:00:26;98203.19;;;20.92;44.37
52137;BME280;69622;49.570;10.986;2023-06-14T10:03:28;98208.91;;;21.26;43.57
52137;BME280;69622;49.570;10.986;2023-06-14T10:06:45;98205.44;;;21.10;44.12
52137;BME280;69622;49.570;10.986;2023-06-14T10:09:47;98216.75;;;21.04;43.26
52137;BME280;69622;49.570;10.986;2023-06-14T10:12:51;98205.75;;;21.01;43.65
52137;BME280;69622;49.570;10.986;2023-06-14T10:16:10;98204.63;;;21.10;43.37
52137;BME280;69622;49.570;10.986;2023-06-14T10:19:27;98206.44;;;21.09;44.30
52137;BME280;69622;49.570;10.986;2023-06-14T10:22:42;98212.69;;;20.87;42.37
52137;BME280;69622;49.570;10.986;2023-06-14T10:25:50;98210.50;;;20.76;44.22
52137;BME280;69622;49.570;10.986;2023-06-14T10:29:07;98210.94;;;20.79;43.36
52137;BME280;69622;49.570;10.986;2023-06-14T10:32:09;98208.41;;;20.86;44.44
52137;BME280;69622;49.570;10.986;2023-06-14T10:35:16;98210.69;;;20.74;44.63
52137;BME280;69622;49.570;10.986;2023-06-14T10:38:30;98212.06;;;20.85;42.95
52137;BME280;69622;49.570;10.986;2023-06-14T10:41:35;98198.00;;;20.99;44.73
52137;BME280;69622;49.570;10.986;2023-06-14T10:44:38;98199.91;;;21.05;43.59
52137;BME280;69622;49.570;10.986;2023-06-14T10:47:41;98197.69;;;21.09;41.16
52137;BME280;69622;49.570;10.986;2023-06-14T10:50:42;98195.59;;;21.19;41.33
52137;BME280;69622;49.570;10.986;2023-06-14T10:53:47;98197.22;;;21.35;42.69
52137;BME280;69622;49.570;10.986;2023-06-14T10:56:51;98201.31;;;21.37;41.41
52137;BME280;69622;49.570;10.986;2023-06-14T10:59:53;98202.69;;;21.33;40.09
52137;BME280;69622;49.570;10.986;2023-06-14T11:03:11;98184.81;;;21.35;40.17
52137;BME280;69622;49.570;10.986;2023-06-14T11:06:22;98202.75;;;21.61;41.04
52137;BME280;69622;49.570;10.986;2023-06-14T11:10:02;98197.88;;;21.79;40.25
52137;BME280;69622;49.570;10.986;2023-06-14T11:13:07;98197.78;;;21.73;40.04
52137;BME280;69622;49.570;10.986;2023-06-14T11:16:17;98194.31;;;21.72;39.97
52137;BME280;69622;49.570;10.986;2023-06-14T11:19:21;98204.91;;;21.72;39.27
52137;BME280;69622;49.570;10.986;2023-06-14T11:22:22;98192.19;;;21.82;40.58
52137;BME280;69622;49.570;10.986;2023-06-14T11:25:25;98192.53;;;22.01;40.67
52137;BME280;69622;49.570;10.986;2023-06-14T11:28:40;98192.78;;;22.27;39.81
52137;BME280;69622;49.570;10.986;2023-06-14T11:31:46;98188.63;;;22.18;39.85
52137;BME280;69622;49.570;10.986;2023-06-14T11:34:48;98190.69;;;22.23;39.25
52137;BME280;69622;49.570;10.986;2023-06-14T11:37:55;98187.78;;;22.11;39.63
52137;BME280;69622;49.570;10.986;2023-06-14T11:40:59;98193.09;;;22.18;39.46
52137;BME280;69622;49.570;10.986;2023-06-14T11:44:02;98194.81;;;22.04;40.22
52137;BME280;69622;49.570;10.986;2023-06-14T11:47:04;98192.41;;;22.09;40.18
52137;BME280;69622;49.570;10.986;2023-06-14T11:50:07;98187.13;;;22.37;38.20
52137;BME280;69622;49.570;10.986;2023-06-14T11:53:09;98179.25;;;22.50;38.40
52137;BME280;69622;49.570;10.986;2023-06-14T11:56:11;98194.66;;;22.33;38.16
52137;BME280;69622;49.570;10.986;2023-06-14T11:59:15;98187.44;;;22.55;39.16
52137;BME280;69622;49.570;10.986;2023-06-14T12:02:18;98185.03;;;22.95;38.97
52137;BME280;69622;49.570;10.986;2023-06-14T12:05:20;98181.22;;;23.17;38.92
52137;BME280;69622;49.570;10.986;2023-06-14T12:08:32;98182.53;;;23.41;37.76
52137;BME280;69622;49.570;10.986;2023-06-14T12:11:39;98175.72;;;23.19;36.98
52137;BME280;69622;49.570;10.986;2023-06-14T12:14:41;98181.78;;;23.60;37.47
52137;BME280;69622;49.570;10.986;2023-06-14T12:17:44;98177.66;;;23.51;35.00
52137;BME280;69622;49.570;10.986;2023-06-14T12:20:50;98173.97;;;23.46;36.05
52137;BME280;69622;49.570;10.986;2023-06-14T12:23:51;98164.28;;;23.05;35.01
52137;BME280;69622;49.570;10.986;2023-06-14T12:26:54;98177.97;;;23.15;36.01
52137;BME280;69622;49.570;10.986;2023-06-14T12:30:02;98170.50;;;23.39;36.71
52137;BME280;69622;49.570;10.986;2023-06-14T12:33:05;98166.25;;;23.64;36.34
52137;BME280;69622;49.570;10.986;2023-06-14T12:36:08;98168.13;;;24.03;35.85
52137;BME280;69622;49.570;10.986;2023-06-14T12:39:10;98169.34;;;23.81;35.44
52137;BME280;69622;49.570;10.986;2023-06-14T12:42:11;98176.09;;;23.90;34.36
52137;BME280;69622;49.570;10.986;2023-06-14T12:45:15;98178.34;;;23.86;34.16
52137;BME280;69622;49.570;10.986;2023-06-14T12:48:17;98176.63;;;23.39;33.61
52137;BME280;69622;49.570;10.986;2023-06-14T12:51:19;98176.97;;;23.23;34.90
52137;BME280;69622;49.570;10.986;2023-06-14T12:54:20;98172.75;;;23.55;34.95
52137;BME280;69622;49.570;10.986;2023-06-14T12:57:40;98182.69;;;23.33;35.05
52137;BME280;69622;49.570;10.986;2023-06-14T13:00:42;98187.19;;;23.33;36.08
52137;BME280;69622;49.570;10.986;2023-06-14T13:03:44;98183.72;;;23.32;36.01
52137;BME280;69622;49.570;10.986;2023-06-14T13:06:46;98185.13;;;23.21;35.78
52137;BME280;69622;49.570;10.986;2023-06-14T13:09:47;98187.88;;;22.93;36.15
52137;BME280;69622;49.570;10.986;2023-06-14T13:12:48;98185.66;;;23.04;36.58
52137;BME280;69622;49.570;10.986;2023-06-14T13:15:50;98184.69;;;23.05;35.47
52137;BME280;69622;49.570;10.986;2023-06-14T13:18:51;98183.91;;;23.24;36.79
52137;BME280;69622;49.570;10.986;2023-06-14T13:21:53;98186.78;;;23.29;35.62
52137;BME280;69622;49.570;10.986;2023-06-14T13:24:54;98171.34;;;23.52;35.91
52137;BME280;69622;49.570;10.986;2023-06-14T13:27:56;98172.81;;;24.14;35.50
52137;BME280;69622;49.570;10.986;2023-06-14T13:30:57;98178.09;;;24.28;34.27
52137;BME280;69622;49.570;10.986;2023-06-14T13:33:59;98174.06;;;24.32;34.88
52137;BME280;69622;49.570;10.986;2023-06-14T13:37:01;98180.16;;;24.26;34.34
52137;BME280;69622;49.570;10.986;2023-06-14T13:43:04;98173.84;;;23.87;33.83
52137;BME280;69622;49.570;10.986;2023-06-14T13:46:05;98177.50;;;23.73;34.78
52137;BME280;69622;49.570;10.986;2023-06-14T13:49:07;98179.34;;;23.72;34.87
52137;BME280;69622;49.570;10.986;2023-06-14T13:52:09;98177.72;;;23.71;34.85
52137;BME280;69622;49.570;10.986;2023-06-14T13:55:11;98169.34;;;23.74;32.79
52137;BME280;69622;49.570;10.986;2023-06-14T13:58:12;98175.66;;;23.93;34.15
52137;BME280;69622;49.570;10.986;2023-06-14T14:01:15;98175.06;;;24.04;34.29
52137;BME280;69622;49.570;10.986;2023-06-14T14:04:19;98164.84;;;23.95;35.24
52137;BME280;69622;49.570;10.986;2023-06-14T14:07:21;98164.44;;;24.37;34.33
52137;BME280;69622;49.570;10.986;2023-06-14T14:10:24;98155.38;;;24.65;33.24
52137;BME280;69622;49.570;10.986;2023-06-14T14:13:26;98150.66;;;25.18;33.98
52137;BME280;69622;49.570;10.986;2023-06-14T14:16:40;98157.09;;;25.67;33.26
52137;BME280;69622;49.570;10.986;2023-06-14T14:19:41;98163.09;;;25.62;31.86
52137;BME280;69622;49.570;10.986;2023-06-14T14:22:43;98167.53;;;25.75;32.64
52137;BME280;69622;49.570;10.986;2023-06-14T14:25:44;98173.59;;;25.89;31.72
52137;BME280;69622;49.570;10.986;2023-06-14T14:28:46;98162.28;;;25.24;32.39
52137;BME280;69622;49.570;10.986;2023-06-14T14:31:47;98162.09;;;25.25;32.51
52137;BME280;69622;49.570;10.986;2023-06-14T14:34:49;98173.25;;;25.09;31.21
52137;BME280;69622;49.570;10.986;2023-06-14T14:37:50;98165.75;;;24.73;31.43
52137;BME280;69622;49.570;10.986;2023-06-14T14:40:54;98166.81;;;24.59;32.60
52137;BME280;69622;49.570;10.986;2023-06-14T14:43:58;98171.06;;;24.79;31.09
52137;BME280;69622;49.570;10.986;2023-06-14T14:47:01;98167.50;;;24.99;32.63
52137;BME280;69622;49.570;10.986;2023-06-14T14:50:04;98163.84;;;25.00;32.38
52137;BME280;69622;49.570;10.986;2023-06-14T14:53:11;98172.22;;;24.97;33.42
52137;BME280;69622;49.570;10.986;2023-06-14T14:56:13;98166.78;;;24.78;33.82
52137;BME280;69622;49.570;10.986;2023-06-14T14:59:14;98158.16;;;24.83;34.85
52137;BME280;69622;49.570;10.986;2023-06-14T15:02:16;98160.94;;;25.15;33.96
52137;BME280;69622;49.570;10.986;2023-06-14T15:05:18;98151.09;;;25.15;32.96
52137;BME280;69622;49.570;10.986;2023-06-14T15:08:20;98160.53;;;25.11;33.06
52137;BME280;69622;49.570;10.986;2023-06-14T15:11:21;98165.53;;;24.81;32.10
52137;BME280;69622;49.570;10.986;2023-06-14T15:14:22;98165.66;;;25.06;33.05
52137;BME280;69622;49.570;10.986;2023-06-14T15:17:24;98167.06;;;25.08;31.81
52137;BME280;69622;49.570;10.986;2023-06-14T15:20:26;98157.06;;;25.04;31.67
52137;BME280;69622;49.570;10.986;2023-06-14T15:23:29;98157.38;;;25.27;31.97
52137;BME280;69622;49.570;10.986;2023-06-14T15:26:30;98157.88;;;25.11;32.05
52137;BME280;69622;49.570;10.986;2023-06-14T15:29:33;98156.59;;;25.52;31.15
52137;BME280;69622;49.570;10.986;2023-06-14T15:32:34;98152.44;;;25.31;32.08
52137;BME280;69622;49.570;10.986;2023-06-14T15:35:36;98158.81;;;25.23;32.19
52137;BME280;69622;49.570;10.986;2023-06-14T15:38:41;98162.41;;;25.04;31.88
52137;BME280;69622;49.570;10.986;2023-06-14T15:41:43;98159.97;;;24.89;32.66
52137;BME280;69622;49.570;10.986;2023-06-14T15:44:44;98161.00;;;24.88;34.19
52137;BME280;69622;49.570;10.986;2023-06-14T15:47:45;98156.25;;;25.10;33.59
52137;BME280;69622;49.570;10.986;2023-06-14T15:50:47;98153.94;;;25.20;32.69
52137;BME280;69622;49.570;10.986;2023-06-14T15:53:50;98152.78;;;25.10;33.06
52137;BME280;69622;49.570;10.986;2023-06-14T15:56:53;98153.78;;;25.08;32.41
52137;BME280;69622;49.570;10.986;2023-06-14T15:59:54;98151.56;;;24.92;34.23